Time;durP1;ratioP1;P1;durP2;ratioP2;P2;SDS_P1;SDS_P2;PMS_P1;PMS_P2;Temp;Humidity;BMP_temperature;BMP_pressure;BME280_temperature;BME280_humidity;BME280_pressure;Samples;Min_cycle;Max_cycle;Signal;HPM_P1;HPM_P2
2021/04/24 00:00:39;;;;;;;11.35;3.92;;;10.60;96.90;;;;;;5067417;28;20028;-82
2021/04/24 00:03:08;;;;;;;8.95;3.33;;;10.60;96.80;;;;;;5073329;28;20039;-80
2021/04/24 00:05:42;;;;;;;8.15;3.70;;;10.60;97.00;;;;;;5057421;28;20076;-82
2021/04/24 00:08:10;;;;;;;7.20;3.20;;;10.40;97.30;;;;;;5071949;28;20047;-81
2021/04/24 00:10:41;;;;;;;7.60;3.25;;;10.40;97.40;;;;;;5072053;28;20036;-82
2021/04/24 00:13:08;;;;;;;7.47;3.30;;;10.40;97.50;;;;;;5072599;28;20067;-82
2021/04/24 00:15:35;;;;;;;8.40;3.78;;;10.40;97.70;;;;;;5071246;28;20029;-81
2021/04/24 00:18:01;;;;;;;9.23;3.45;;;10.30;97.70;;;;;;5070468;28;20183;-82
2021/04/24 00:20:26;;;;;;;6.65;2.72;;;10.30;97.90;;;;;;5053431;28;20033;-82
2021/04/24 00:22:53;;;;;;;10.15;3.97;;;10.30;97.90;;;;;;5070729;28;20032;-82
2021/04/24 00:25:19;;;;;;;5.65;3.30;;;10.20;98.20;;;;;;5071744;28;20029;-81
2021/04/24 00:27:45;;;;;;;7.32;3.13;;;10.30;98.50;;;;;;5071306;28;20025;-81
2021/04/24 00:30:13;;;;;;;9.77;3.85;;;10.20;98.50;;;;;;5074071;28;20507;-82
2021/04/24 00:32:40;;;;;;;10.35;3.95;;;10.20;98.60;;;;;;5073411;28;20039;-82
2021/04/24 00:35:07;;;;;;;6.18;2.97;;;10.20;98.60;;;;;;5073569;28;20919;-82
2021/04/24 00:37:32;;;;;;;6.75;3.20;;;10.20;98.90;;;;;;5071385;28;20058;-82
2021/04/24 00:39:58;;;;;;;7.13;3.25;;;10.10;99.00;;;;;;5068387;28;20033;-82
2021/04/24 00:42:24;;;;;;;6.97;2.88;;;10.20;99.40;;;;;;5060769;28;20028;-82
2021/04/24 00:44:52;;;;;;;8.65;2.58;;;10.10;99.30;;;;;;5072349;28;20029;-82
2021/04/24 00:47:19;;;;;;;9.60;3.22;;;10.00;99.50;;;;;;5072009;28;20044;-81
2021/04/24 00:49:45;;;;;;;8.98;3.70;;;10.00;99.90;;;;;;5071192;28;20111;-82
2021/04/24 00:52:11;;;;;;;8.32;3.70;;;9.80;99.90;;;;;;5070433;28;20073;-81
2021/04/24 00:54:36;;;;;;;8.40;3.00;;;9.90;99.90;;;;;;5071054;28;20024;-81
2021/04/24 00:57:03;;;;;;;6.60;3.20;;;9.80;99.90;;;;;;5070150;28;20040;-81
2021/04/24 00:59:29;;;;;;;7.70;3.20;;;9.90;99.90;;;;;;5071596;28;20025;-82
2021/04/24 01:01:55;;;;;;;10.50;3.67;;;9.80;99.90;;;;;;5072223;28;20036;-82
2021/04/24 01:04:21;;;;;;;7.80;3.38;;;9.80;99.90;;;;;;5072713;28;20476;-82
2021/04/24 01:06:48;;;;;;;7.35;3.20;;;9.80;99.90;;;;;;5054188;28;20040;-82
2021/04/24 01:09:14;;;;;;;8.00;3.42;;;9.80;99.90;;;;;;5073081;28;20032;-82
2021/04/24 01:11:40;;;;;;;6.25;3.33;;;9.70;99.90;;;;;;5072592;28;20044;-82
2021/04/24 01:14:05;;;;;;;10.95;3.58;;;9.60;99.90;;;;;;5054899;28;20116;-82
2021/04/24 01:16:31;;;;;;;7.05;3.28;;;9.70;99.90;;;;;;5073081;28;20466;-82
2021/04/24 01:18:57;;;;;;;7.70;3.47;;;9.60;99.90;;;;;;5054782;28;20024;-82
2021/04/24 01:21:24;;;;;;;6.78;3.25;;;9.50;99.90;;;;;;5073087;28;20039;-82
2021/04/24 01:23:52;;;;;;;8.15;3.67;;;9.50;99.90;;;;;;5072208;28;20500;-82
2021/04/24 01:26:18;;;;;;;7.95;3.28;;;9.60;99.90;;;;;;5054783;28;20028;-82
2021/04/24 01:28:45;;;;;;;7.65;3.88;;;9.60;99.90;;;;;;5049193;28;20024;-82
2021/04/24 01:31:11;;;;;;;8.63;4.05;;;9.50;99.90;;;;;;5053983;28;20051;-81
2021/04/24 01:33:37;;;;;;;6.30;3.35;;;9.50;99.90;;;;;;5071115;28;20038;-81
2021/04/24 01:36:03;;;;;;;10.20;4.05;;;9.40;99.90;;;;;;5071837;28;20040;-82
2021/04/24 01:38:28;;;;;;;6.82;3.55;;;9.40;99.90;;;;;;5052318;28;20043;-81
2021/04/24 01:40:54;;;;;;;8.60;3.67;;;9.40;99.90;;;;;;5071777;28;20036;-81
2021/04/24 01:43:20;;;;;;;10.48;4.38;;;9.30;99.90;;;;;;5070838;28;20482;-81
2021/04/24 01:45:45;;;;;;;10.98;3.80;;;9.10;99.90;;;;;;5071907;28;20041;-81
2021/04/24 01:48:11;;;;;;;7.60;3.80;;;9.20;99.90;;;;;;5070684;28;20115;-81
2021/04/24 01:50:45;;;;;;;7.57;3.70;;;9.10;99.90;;;;;;5067959;28;20124;-81
2021/04/24 01:53:18;;;;;;;10.30;4.97;;;9.10;99.90;;;;;;5052234;28;20051;-81
2021/04/24 01:55:46;;;;;;;14.45;5.70;;;9.10;99.90;;;;;;5054979;28;20032;-81
2021/04/24 01:58:15;;;;;;;10.18;4.97;;;9.10;99.90;;;;;;5033257;28;20033;-82
2021/04/24 02:00:54;;;;;;;10.73;4.72;;;9.10;99.90;;;;;;5051732;28;20033;-82
2021/04/24 02:03:20;;;;;;;12.93;4.90;;;9.10;99.90;;;;;;5051897;28;20029;-81
2021/04/24 02:05:47;;;;;;;10.00;5.18;;;9.10;99.90;;;;;;5062836;28;20063;-82
2021/04/24 02:08:25;;;;;;;9.15;4.75;;;9.10;99.90;;;;;;5069697;28;20028;-82
2021/04/24 02:10:54;;;;;;;9.15;4.57;;;9.00;99.90;;;;;;5066363;28;20072;-82
2021/04/24 02:13:23;;;;;;;12.88;4.05;;;9.00;99.90;;;;;;5065573;28;20029;-82
2021/04/24 02:15:49;;;;;;;7.75;4.07;;;9.00;99.90;;;;;;5070578;28;20130;-82
2021/04/24 02:18:15;;;;;;;11.85;4.85;;;9.00;99.90;;;;;;5069629;28;20060;-82
2021/04/24 02:20:42;;;;;;;13.88;4.93;;;8.80;99.90;;;;;;5070463;28;20456;-81
2021/04/24 02:23:10;;;;;;;8.05;4.57;;;8.80;99.90;;;;;;5069272;28;20020;-82
2021/04/24 02:25:36;;;;;;;9.80;6.20;;;8.80;99.90;;;;;;5058750;28;20091;-82
2021/04/24 02:28:01;;;;;;;11.65;6.05;;;8.80;99.90;;;;;;5050455;28;20473;-82
2021/04/24 02:30:27;;;;;;;11.52;4.80;;;8.80;99.90;;;;;;5069326;28;20038;-82
2021/04/24 02:32:53;;;;;;;8.20;4.13;;;8.80;99.90;;;;;;5070672;28;20362;-81
2021/04/24 02:35:48;;;;;;;9.75;4.85;;;8.70;99.90;;;;;;5070255;28;20024;-82
2021/04/24 02:38:21;;;;;;;9.00;3.97;;;8.60;99.90;;;;;;5069770;28;20028;-82
2021/04/24 02:40:47;;;;;;;8.60;4.43;;;8.50;99.90;;;;;;5064804;28;20068;-82
2021/04/24 02:43:14;;;;;;;9.73;5.15;;;8.50;99.90;;;;;;5068281;28;20466;-82
2021/04/24 02:45:40;;;;;;;9.57;4.60;;;8.50;99.90;;;;;;5054974;28;20271;-82
2021/04/24 02:48:06;;;;;;;10.20;4.75;;;8.50;99.90;;;;;;5070987;28;20061;-82
2021/04/24 02:50:31;;;;;;;10.57;4.32;;;8.50;99.90;;;;;;5065515;28;20584;-82
2021/04/24 02:52:57;;;;;;;8.10;4.47;;;8.50;99.90;;;;;;5051221;28;20075;-82
2021/04/24 02:55:23;;;;;;;9.90;4.63;;;8.40;99.90;;;;;;5049586;28;20145;-82
2021/04/24 02:57:49;;;;;;;11.63;5.40;;;8.50;99.90;;;;;;5069530;28;20123;-82
2021/04/24 03:00:17;;;;;;;9.52;5.75;;;8.40;99.90;;;;;;5069437;28;20156;-82
2021/04/24 03:02:43;;;;;;;14.25;5.28;;;8.50;99.90;;;;;;5069254;28;20028;-82
2021/04/24 03:05:17;;;;;;;9.75;4.65;;;8.50;99.90;;;;;;5050900;28;20041;-83
2021/04/24 03:07:44;;;;;;;11.18;4.95;;;8.40;99.90;;;;;;5051128;28;20115;-82
2021/04/24 03:10:11;;;;;;;12.68;5.05;;;8.50;99.90;;;;;;5068472;28;20147;-82
2021/04/24 03:12:37;;;;;;;11.23;4.25;;;8.40;99.90;;;;;;5070041;28;20037;-82
2021/04/24 03:15:05;;;;;;;8.48;4.85;;;8.40;99.90;;;;;;5052049;28;20354;-82
2021/04/24 03:17:32;;;;;;;11.48;5.32;;;8.40;99.90;;;;;;5049483;28;20224;-82
2021/04/24 03:19:57;;;;;;;12.82;4.95;;;8.30;99.90;;;;;;5060302;28;20041;-81
2021/04/24 03:22:23;;;;;;;10.13;5.10;;;8.40;99.90;;;;;;5069899;28;20771;-82
2021/04/24 03:24:49;;;;;;;8.60;4.32;;;8.30;99.90;;;;;;5080447;28;20078;-82
2021/04/24 03:27:14;;;;;;;9.80;4.38;;;8.40;99.90;;;;;;5071893;28;20029;-82
2021/04/24 03:29:40;;;;;;;8.88;3.85;;;8.20;99.90;;;;;;5066249;28;20033;-82
2021/04/24 03:32:06;;;;;;;6.80;3.97;;;8.20;99.90;;;;;;5073375;28;20028;-82
2021/04/24 03:34:33;;;;;;;10.07;4.00;;;8.10;99.90;;;;;;5072370;28;20029;-82
2021/04/24 03:36:59;;;;;;;7.72;4.47;;;8.10;99.90;;;;;;5069146;28;20033;-82
2021/04/24 03:39:25;;;;;;;9.90;4.45;;;8.10;99.90;;;;;;5071890;28;20102;-82
2021/04/24 03:41:51;;;;;;;8.23;4.28;;;8.20;99.90;;;;;;5072073;28;20883;-82
2021/04/24 03:44:17;;;;;;;9.18;4.28;;;8.20;99.90;;;;;;5057925;28;20067;-82
2021/04/24 03:46:42;;;;;;;8.13;3.90;;;8.20;99.90;;;;;;5058781;28;20032;-82
2021/04/24 03:49:08;;;;;;;8.80;4.20;;;8.10;99.90;;;;;;5057305;28;20032;-82
2021/04/24 03:51:34;;;;;;;11.23;4.65;;;8.20;99.90;;;;;;5072915;28;20078;-82
2021/04/24 03:53:59;;;;;;;9.88;4.40;;;8.10;99.90;;;;;;5069046;28;20108;-82
2021/04/24 03:56:25;;;;;;;8.95;4.50;;;8.10;99.90;;;;;;5084342;28;20035;-81
2021/04/24 03:58:51;;;;;;;8.70;4.35;;;8.10;99.90;;;;;;5057660;28;20039;-82
2021/04/24 04:01:16;;;;;;;10.48;4.43;;;8.00;99.90;;;;;;5066602;28;20454;-82
2021/04/24 04:03:42;;;;;;;9.38;4.00;;;8.00;99.90;;;;;;5073555;28;20078;-82
2021/04/24 04:06:07;;;;;;;9.32;4.13;;;7.90;99.90;;;;;;5073633;28;20086;-82
2021/04/24 04:08:33;;;;;;;11.38;4.05;;;7.90;99.90;;;;;;5070145;28;20115;-82
2021/04/24 04:10:59;;;;;;;9.68;4.22;;;7.90;99.90;;;;;;5064779;28;20025;-81
2021/04/24 04:13:25;;;;;;;9.25;4.97;;;7.80;99.90;;;;;;5054041;28;20513;-82
2021/04/24 04:15:51;;;;;;;11.00;4.78;;;7.80;99.90;;;;;;5073117;28;20040;-82
2021/04/24 04:18:18;;;;;;;10.20;4.38;;;7.80;99.90;;;;;;5072892;28;20029;-82
2021/04/24 04:20:50;;;;;;;9.05;4.50;;;7.60;99.90;;;;;;5074308;28;20100;-82
2021/04/24 04:23:16;;;;;;;9.77;4.50;;;7.60;99.90;;;;;;5073222;28;20536;-82
2021/04/24 04:25:43;;;;;;;9.05;3.90;;;7.70;99.90;;;;;;5069937;28;20041;-82
2021/04/24 04:28:09;;;;;;;11.07;4.88;;;7.80;99.90;;;;;;5073157;28;20028;-82
2021/04/24 04:30:36;;;;;;;8.15;4.30;;;7.70;99.90;;;;;;5072472;28;20033;-83
2021/04/24 04:33:04;;;;;;;11.35;4.80;;;7.80;99.90;;;;;;5072322;28;20031;-83
2021/04/24 04:35:30;;;;;;;7.75;4.53;;;7.80;99.90;;;;;;5074215;28;20142;-82
2021/04/24 04:37:56;;;;;;;9.13;4.55;;;7.80;99.90;;;;;;5059102;28;20779;-82
2021/04/24 04:40:22;;;;;;;10.30;4.57;;;7.80;99.90;;;;;;5065965;28;20123;-82
2021/04/24 04:42:48;;;;;;;10.10;4.88;;;7.80;99.90;;;;;;5068101;28;20489;-82
2021/04/24 04:45:15;;;;;;;15.02;5.72;;;7.80;99.90;;;;;;5073037;28;20037;-82
2021/04/24 04:47:42;;;;;;;11.35;4.82;;;7.70;99.90;;;;;;5071228;28;20105;-82
2021/04/24 04:50:11;;;;;;;13.73;5.20;;;7.70;99.90;;;;;;5070820;28;20474;-82
2021/04/24 04:52:38;;;;;;;9.77;4.68;;;7.60;99.90;;;;;;5072888;28;20039;-82
2021/04/24 04:55:05;;;;;;;11.23;4.93;;;7.60;99.90;;;;;;5071307;28;20458;-82
2021/04/24 04:57:32;;;;;;;6.75;3.58;;;7.60;99.90;;;;;;5054552;28;20059;-83
2021/04/24 04:59:58;;;;;;;10.90;4.45;;;7.60;99.90;;;;;;5061807;28;20033;-82
2021/04/24 05:02:23;;;;;;;12.13;4.63;;;7.50;99.90;;;;;;5070475;28;20033;-82
2021/04/24 05:04:49;;;;;;;9.25;4.75;;;7.60;99.90;;;;;;5062103;28;20477;-82
2021/04/24 05:07:15;;;;;;;9.00;4.85;;;7.60;99.90;;;;;;5065102;28;20029;-82
2021/04/24 05:09:41;;;;;;;11.85;5.07;;;7.60;99.90;;;;;;5067564;28;20037;-82
2021/04/24 05:12:08;;;;;;;10.30;4.85;;;7.60;99.90;;;;;;5071211;28;20052;-82
2021/04/24 05:14:34;;;;;;;9.55;4.93;;;7.50;99.90;;;;;;5066584;28;20051;-82
2021/04/24 05:17:00;;;;;;;8.63;4.93;;;7.60;99.90;;;;;;5070398;28;20505;-83
2021/04/24 05:19:25;;;;;;;8.57;4.97;;;7.60;99.90;;;;;;5072375;28;20043;-83
2021/04/24 05:21:51;;;;;;;10.43;5.05;;;7.60;99.90;;;;;;5070678;28;20055;-83
2021/04/24 05:24:17;;;;;;;9.75;4.88;;;7.60;99.90;;;;;;5071215;28;20024;-83
2021/04/24 05:26:42;;;;;;;11.15;5.50;;;7.70;99.90;;;;;;5065765;28;20024;-83
2021/04/24 05:29:08;;;;;;;8.98;4.95;;;7.60;99.90;;;;;;5070113;28;20040;-83
2021/04/24 05:31:34;;;;;;;12.13;4.60;;;7.90;99.90;;;;;;5070255;28;20032;-83
2021/04/24 05:34:00;;;;;;;9.60;5.03;;;8.10;99.90;;;;;;5069965;28;20028;-83
2021/04/24 05:36:27;;;;;;;10.85;5.28;;;8.40;99.90;;;;;;5071198;28;20166;-84
2021/04/24 05:38:53;;;;;;;12.27;5.05;;;8.70;99.90;;;;;;5070246;28;20032;-83
2021/04/24 05:41:21;;;;;;;12.30;4.60;;;9.00;99.90;;;;;;5072684;28;20032;-84
2021/04/24 05:43:49;;;;;;;12.70;5.10;;;9.20;99.90;;;;;;5069427;28;20461;-84
2021/04/24 05:46:15;;;;;;;9.98;5.50;;;9.40;99.90;;;;;;5069719;28;20115;-83
2021/04/24 05:48:41;;;;;;;11.93;4.80;;;9.60;99.90;;;;;;5069236;28;20048;-84
2021/04/24 05:51:07;;;;;;;14.00;5.68;;;10.00;99.90;;;;;;5061557;28;20029;-84
2021/04/24 05:53:32;;;;;;;10.57;5.53;;;10.30;99.90;;;;;;5069219;28;20040;-83
2021/04/24 05:55:58;;;;;;;9.90;4.88;;;10.50;99.90;;;;;;5062232;28;20044;-82
2021/04/24 05:58:24;;;;;;;13.82;5.70;;;10.70;99.90;;;;;;5048818;28;20215;-83
2021/04/24 06:00:50;;;;;;;10.88;4.80;;;10.90;99.90;;;;;;5048818;28;20036;-83
2021/04/24 06:03:16;;;;;;;7.93;5.05;;;11.00;99.90;;;;;;5049236;28;20918;-83
2021/04/24 06:05:42;;;;;;;8.10;4.53;;;11.20;99.90;;;;;;5048432;28;20087;-83
2021/04/24 06:08:08;;;;;;;9.82;4.65;;;11.40;99.90;;;;;;5068298;28;20048;-84
2021/04/24 06:10:34;;;;;;;11.45;5.60;;;11.40;99.90;;;;;;5068027;28;20496;-83
2021/04/24 06:13:00;;;;;;;14.48;6.68;;;11.50;99.90;;;;;;5068214;28;20032;-84
2021/04/24 06:15:25;;;;;;;12.18;6.47;;;11.50;99.90;;;;;;5067306;28;20099;-84
2021/04/24 06:17:51;;;;;;;13.55;7.05;;;11.70;99.90;;;;;;5067996;28;20041;-84
2021/04/24 06:20:17;;;;;;;8.70;5.03;;;11.80;99.90;;;;;;5050766;28;20478;-83
2021/04/24 06:22:44;;;;;;;7.97;4.45;;;12.00;99.90;;;;;;5059675;28;20036;-82
2021/04/24 06:25:12;;;;;;;8.57;4.63;;;12.20;99.90;;;;;;5065022;28;20076;-83
2021/04/24 06:27:38;;;;;;;8.05;4.25;;;12.50;99.90;;;;;;5069133;28;20036;-83
2021/04/24 06:30:05;;;;;;;7.63;4.85;;;12.60;99.90;;;;;;5084305;28;20378;-82
2021/04/24 06:32:31;;;;;;;8.30;4.70;;;12.70;99.90;;;;;;5064865;28;20044;-82
2021/04/24 06:34:57;;;;;;;9.93;5.28;;;12.60;99.90;;;;;;5067446;28;20033;-83
2021/04/24 06:37:23;;;;;;;14.95;5.20;;;12.90;99.90;;;;;;5068151;28;20102;-83
2021/04/24 06:39:48;;;;;;;8.20;5.13;;;13.10;99.90;;;;;;5065359;28;20107;-80
2021/04/24 06:42:15;;;;;;;10.18;4.78;;;13.00;99.90;;;;;;5066528;28;20035;-81
2021/04/24 06:44:45;;;;;;;13.90;4.97;;;13.20;99.90;;;;;;5067227;28;20093;-80
2021/04/24 06:47:11;;;;;;;11.75;4.60;;;13.30;99.90;;;;;;5063426;28;20051;-82
2021/04/24 06:49:37;;;;;;;12.20;4.50;;;13.20;99.90;;;;;;5065368;28;20039;-81
2021/04/24 06:52:04;;;;;;;16.95;5.05;;;13.20;99.90;;;;;;5066682;28;20037;-80
2021/04/24 06:54:30;;;;;;;14.73;5.15;;;13.60;99.90;;;;;;5066341;28;20027;-82
2021/04/24 06:56:56;;;;;;;23.90;5.10;;;13.70;99.90;;;;;;5072273;28;20037;-80
2021/04/24 06:59:21;;;;;;;8.30;3.38;;;13.90;99.90;;;;;;5065751;28;20374;-80
2021/04/24 07:01:47;;;;;;;9.60;4.60;;;13.90;99.70;;;;;;5070980;28;20917;-80
2021/04/24 07:04:13;;;;;;;6.75;3.83;;;14.00;99.70;;;;;;5066942;28;20028;-80
2021/04/24 07:06:39;;;;;;;13.82;4.45;;;14.10;99.60;;;;;;5071609;28;20029;-81
2021/04/24 07:09:05;;;;;;;9.73;4.40;;;14.30;98.90;;;;;;5067011;28;20038;-81
2021/04/24 07:11:30;;;;;;;9.18;5.20;;;14.70;99.00;;;;;;5069909;28;20601;-80
2021/04/24 07:13:56;;;;;;;7.60;4.50;;;14.70;98.80;;;;;;5062475;28;20065;-80
2021/04/24 07:16:22;;;;;;;13.52;4.75;;;15.00;97.80;;;;;;5048518;28;20608;-81
2021/04/24 07:18:47;;;;;;;10.57;2.95;;;15.30;97.00;;;;;;5068853;28;20040;-81
2021/04/24 07:21:13;;;;;;;7.70;3.35;;;15.60;95.40;;;;;;5071312;28;20031;-82
2021/04/24 07:23:40;;;;;;;7.05;3.30;;;15.40;94.90;;;;;;5070928;28;20042;-82
2021/04/24 07:26:07;;;;;;;6.50;2.65;;;15.30;94.60;;;;;;5052314;28;20060;-82
2021/04/24 07:28:33;;;;;;;6.60;2.88;;;15.50;94.00;;;;;;5052474;28;20410;-81
2021/04/24 07:30:59;;;;;;;8.60;3.25;;;16.10;93.90;;;;;;5051588;28;20086;-82
2021/04/24 07:33:25;;;;;;;11.93;4.53;;;16.50;93.50;;;;;;5071364;28;20103;-81
2021/04/24 07:35:52;;;;;;;11.43;3.83;;;16.30;93.00;;;;;;5069740;28;20078;-81
2021/04/24 07:38:19;;;;;;;13.70;4.45;;;16.40;92.80;;;;;;5069184;28;20449;-81
2021/04/24 07:40:45;;;;;;;11.45;4.88;;;16.50;92.50;;;;;;5068925;28;20108;-81
2021/04/24 07:43:11;;;;;;;11.15;4.45;;;16.40;92.90;;;;;;5060299;28;20041;-81
2021/04/24 07:45:38;;;;;;;8.88;4.35;;;16.70;92.50;;;;;;5053333;28;20074;-81
2021/04/24 07:48:04;;;;;;;7.82;3.80;;;16.80;92.00;;;;;;5063477;28;20060;-80
2021/04/24 07:50:30;;;;;;;6.93;3.83;;;16.90;91.10;;;;;;5070546;28;20381;-81
2021/04/24 07:52:56;;;;;;;8.60;3.70;;;16.80;91.80;;;;;;5051948;28;20033;-80
2021/04/24 07:55:22;;;;;;;7.05;3.40;;;16.20;92.00;;;;;;5063992;28;20024;-80
2021/04/24 07:57:47;;;;;;;8.30;3.42;;;16.50;92.80;;;;;;5072097;28;20043;-80
2021/04/24 08:00:14;;;;;;;11.30;3.65;;;16.40;92.20;;;;;;5062990;28;20056;-80
2021/04/24 08:02:39;;;;;;;6.00;2.58;;;16.40;90.90;;;;;;5067003;28;20025;-80
2021/04/24 08:05:05;;;;;;;6.95;3.08;;;16.00;91.70;;;;;;5068059;28;20052;-80
2021/04/24 08:07:31;;;;;;;6.68;2.70;;;15.80;91.50;;;;;;5062589;28;20029;-79
2021/04/24 08:09:57;;;;;;;7.38;3.10;;;15.40;91.60;;;;;;5068896;28;20043;-80
2021/04/24 08:12:22;;;;;;;6.60;2.70;;;16.00;92.40;;;;;;5071875;28;20032;-80
2021/04/24 08:14:48;;;;;;;7.70;2.65;;;15.50;93.00;;;;;;5071313;28;20583;-80
2021/04/24 08:17:14;;;;;;;6.32;3.00;;;15.80;92.70;;;;;;5064265;28;20075;-80
2021/04/24 08:19:40;;;;;;;8.30;2.83;;;15.80;92.50;;;;;;5066801;28;20020;-80
2021/04/24 08:22:07;;;;;;;6.35;2.60;;;16.60;91.70;;;;;;5071290;28;20057;-80
2021/04/24 08:24:33;;;;;;;7.25;2.50;;;16.40;91.10;;;;;;5070959;28;20130;-80
2021/04/24 08:26:59;;;;;;;8.00;3.00;;;16.80;91.20;;;;;;5071849;28;20033;-81
2021/04/24 08:29:24;;;;;;;7.78;2.72;;;17.20;90.50;;;;;;5070506;28;20489;-80
2021/04/24 08:31:50;;;;;;;6.22;2.88;;;17.80;89.30;;;;;;5062189;28;20112;-80
2021/04/24 08:34:17;;;;;;;5.72;2.45;;;18.20;88.00;;;;;;5052050;28;20033;-81
2021/04/24 08:36:43;;;;;;;9.75;3.20;;;18.40;84.80;;;;;;5064321;28;20027;-81
2021/04/24 08:39:09;;;;;;;7.85;2.83;;;18.40;84.50;;;;;;5068730;28;20389;-81
2021/04/24 08:41:35;;;;;;;4.85;2.67;;;18.40;84.20;;;;;;5071864;28;20016;-81
2021/04/24 08:44:01;;;;;;;10.48;2.70;;;17.70;84.70;;;;;;5062626;28;20040;-80
2021/04/24 08:46:27;;;;;;;6.68;2.50;;;17.60;85.90;;;;;;5046973;28;20070;-80
2021/04/24 08:48:57;;;;;;;10.30;2.70;;;17.30;85.20;;;;;;5070459;28;20037;-81
2021/04/24 08:51:24;;;;;;;5.15;2.53;;;17.20;87.30;;;;;;5070810;28;20024;-81
2021/04/24 08:53:51;;;;;;;5.68;2.45;;;17.20;87.70;;;;;;5070865;28;20683;-81
2021/04/24 08:56:18;;;;;;;6.78;2.92;;;17.50;87.20;;;;;;5070035;28;20032;-80
2021/04/24 08:58:44;;;;;;;12.57;2.75;;;18.10;85.80;;;;;;5070413;28;20060;-80
2021/04/24 09:01:10;;;;;;;6.55;2.47;;;18.50;83.30;;;;;;5070210;28;20059;-81
2021/04/24 09:03:37;;;;;;;7.38;2.78;;;18.50;81.30;;;;;;5067026;28;20032;-81
2021/04/24 09:06:03;;;;;;;5.25;2.35;;;18.20;80.50;;;;;;5061776;28;20048;-81
2021/04/24 09:08:30;;;;;;;6.30;2.50;;;18.10;79.50;;;;;;5070522;28;20036;-81
2021/04/24 09:11:05;;;;;;;4.60;1.98;;;18.30;80.30;;;;;;5069435;28;20800;-80
2021/04/24 09:13:32;;;;;;;4.90;2.42;;;18.70;78.50;;;;;;5060504;28;20535;-80
2021/04/24 09:15:58;;;;;;;6.10;2.38;;;18.30;78.20;;;;;;5069711;28;20458;-80
2021/04/24 09:18:28;;;;;;;7.03;2.65;;;18.30;78.60;;;;;;5058635;28;20411;-79
2021/04/24 09:21:01;;;;;;;8.65;1.98;;;18.30;77.70;;;;;;5066330;28;20021;-80
2021/04/24 09:23:30;;;;;;;3.85;2.10;;;18.30;79.20;;;;;;5068181;28;20071;-79
2021/04/24 09:25:59;;;;;;;7.03;2.90;;;18.90;82.10;;;;;;5069096;28;20346;-80
2021/04/24 09:28:31;;;;;;;6.15;2.60;;;18.20;77.50;;;;;;5068035;28;20067;-79
2021/04/24 09:31:08;;;;;;;9.95;3.28;;;18.00;78.70;;;;;;5069421;28;20035;-79
2021/04/24 09:33:35;;;;;;;5.85;2.40;;;18.60;81.70;;;;;;5063071;28;20112;-79
2021/04/24 09:36:02;;;;;;;6.63;2.80;;;19.20;78.30;;;;;;5064377;28;20965;-79
2021/04/24 09:38:34;;;;;;;6.47;2.10;;;19.00;74.50;;;;;;5069091;28;20033;-79
2021/04/24 09:41:04;;;;;;;4.88;2.20;;;18.70;77.80;;;;;;5068980;28;20038;-79
2021/04/24 09:43:48;;;;;;;10.23;3.20;;;18.40;75.70;;;;;;5056759;28;20060;-79
2021/04/24 09:46:15;;;;;;;7.00;2.35;;;18.60;76.00;;;;;;5070179;28;20029;-77
2021/04/24 09:48:41;;;;;;;8.38;2.00;;;19.00;78.80;;;;;;5070548;28;20041;-79
2021/04/24 09:51:15;;;;;;;6.10;2.00;;;18.80;74.10;;;;;;5071611;28;20074;-79
2021/04/24 09:53:41;;;;;;;9.30;2.78;;;18.60;72.50;;;;;;5069556;28;20060;-79
2021/04/24 09:56:14;;;;;;;5.47;2.00;;;18.60;73.40;;;;;;5072189;28;20048;-80
2021/04/24 09:58:42;;;;;;;6.43;2.10;;;18.60;72.70;;;;;;5069329;28;20036;-80
2021/04/24 10:01:22;;;;;;;7.63;2.40;;;18.80;73.50;;;;;;5071306;28;20016;-80
2021/04/24 10:03:50;;;;;;;6.03;2.13;;;18.90;72.60;;;;;;5071480;28;20035;-79
2021/04/24 10:06:21;;;;;;;5.82;1.80;;;19.10;74.00;;;;;;5067736;28;20040;-79
2021/04/24 10:08:48;;;;;;;;;;;19.20;74.00;;;;;;5052371;28;20037;-80
2021/04/24 10:11:29;;;;;;;4.68;1.70;;;19.30;73.50;;;;;;5070990;28;19908;-80
2021/04/24 10:13:54;;;;;;;5.15;1.90;;;19.70;72.70;;;;;;5058521;28;20029;-80
2021/04/24 10:16:32;;;;;;;4.72;2.03;;;20.00;68.60;;;;;;5062221;28;20037;-80
2021/04/24 10:18:58;;;;;;;10.10;3.33;;;20.40;67.90;;;;;;5067416;28;20044;-79
2021/04/24 10:21:25;;;;;;;8.40;2.53;;;19.90;68.70;;;;;;5070855;28;20036;-80
2021/04/24 10:23:51;;;;;;;7.82;2.22;;;20.00;68.10;;;;;;5049149;28;20032;-80
2021/04/24 10:26:18;;;;;;;5.40;1.92;;;20.30;69.10;;;;;;5068522;28;20085;-80
2021/04/24 10:28:44;;;;;;;6.45;2.20;;;19.90;66.90;;;;;;5071392;28;20393;-80
2021/04/24 10:31:10;;;;;;;5.00;2.00;;;20.40;68.70;;;;;;5071419;28;20041;-80
2021/04/24 10:33:37;;;;;;;3.92;2.05;;;20.30;67.30;;;;;;5071179;28;20161;-80
2021/04/24 10:36:04;;;;;;;6.68;1.83;;;20.50;64.30;;;;;;5067161;28;20392;-80
2021/04/24 10:38:31;;;;;;;8.00;1.58;;;20.50;65.40;;;;;;5071400;28;20037;-80
2021/04/24 10:40:57;;;;;;;5.75;2.13;;;20.90;66.60;;;;;;5070576;28;20036;-81
2021/04/24 10:43:23;;;;;;;8.23;2.35;;;20.90;62.10;;;;;;5068823;28;20027;-80
2021/04/24 10:45:49;;;;;;;6.57;1.98;;;20.80;63.30;;;;;;5070905;28;20650;-80
2021/04/24 10:48:23;;;;;;;6.65;2.38;;;21.00;67.30;;;;;;5069126;28;20039;-80
2021/04/24 10:50:49;;;;;;;8.23;2.88;;;21.00;62.80;;;;;;5068738;28;20040;-79
2021/04/24 10:53:22;;;;;;;5.72;2.63;;;20.60;63.70;;;;;;5051653;28;20109;-80
2021/04/24 10:55:49;;;;;;;6.07;2.85;;;20.50;63.90;;;;;;5069904;28;20032;-79
2021/04/24 10:58:35;;;;;;;6.88;2.75;;;20.40;61.50;;;;;;5065512;28;20051;-79
2021/04/24 11:01:06;;;;;;;7.07;2.35;;;20.30;63.80;;;;;;5057690;28;20069;-79
2021/04/24 11:03:45;;;;;;;4.07;2.17;;;20.50;62.90;;;;;;5067686;28;20021;-80
2021/04/24 11:06:15;;;;;;;5.75;2.10;;;20.70;64.00;;;;;;5058422;28;20496;-79
2021/04/24 11:08:42;;;;;;;6.60;3.20;;;20.80;64.50;;;;;;5058003;28;20037;-80
2021/04/24 11:11:16;;;;;;;7.70;4.10;;;20.70;62.70;;;;;;5058265;28;20354;-81
2021/04/24 11:13:55;;;;;;;9.95;3.70;;;20.90;61.60;;;;;;5065691;28;20925;-81
2021/04/24 11:16:26;;;;;;;13.35;2.30;;;21.00;62.40;;;;;;5068601;28;20245;-81
2021/04/24 11:18:52;;;;;;;6.25;2.30;;;21.20;63.00;;;;;;5062163;28;20045;-81
2021/04/24 11:21:17;;;;;;;6.45;2.75;;;21.30;61.80;;;;;;5069422;28;20024;-81
2021/04/24 11:23:45;;;;;;;6.72;2.38;;;21.00;63.20;;;;;;5068949;28;20103;-81
2021/04/24 11:26:29;;;;;;;5.18;1.83;;;21.20;63.10;;;;;;5069177;28;20032;-81
2021/04/24 11:29:21;;;;;;;4.40;2.20;;;21.40;64.90;;;;;;5066886;28;20040;-80
2021/04/24 11:31:56;;;;;;;7.93;2.08;;;21.40;61.10;;;;;;5054805;28;20055;-80
2021/04/24 11:34:23;;;;;;;7.55;2.35;;;21.40;61.20;;;;;;5065071;28;20460;-80
2021/04/24 11:37:14;;;;;;;8.20;1.95;;;21.20;60.30;;;;;;5061858;28;20091;-80
2021/04/24 11:40:05;;;;;;;6.47;2.28;;;21.50;61.00;;;;;;5065430;28;20025;-80
2021/04/24 11:42:33;;;;;;;3.25;1.70;;;21.60;59.30;;;;;;5048171;28;20051;-80
2021/04/24 11:44:59;;;;;;;6.15;2.20;;;21.90;60.50;;;;;;5065021;28;20071;-80
2021/04/24 11:47:43;;;;;;;4.55;1.90;;;22.00;58.90;;;;;;5064971;28;20448;-80
2021/04/24 11:50:10;;;;;;;3.55;1.98;;;21.90;58.70;;;;;;5067510;28;20082;-80
2021/04/24 11:52:36;;;;;;;6.35;1.83;;;21.60;56.90;;;;;;5070982;28;20111;-80
2021/04/24 11:55:03;;;;;;;4.03;2.00;;;21.90;58.70;;;;;;5071360;28;20036;-80
2021/04/24 11:57:28;;;;;;;8.93;2.30;;;21.80;57.60;;;;;;5071851;28;20521;-80
2021/04/24 11:59:54;;;;;;;5.10;2.67;;;21.70;57.30;;;;;;5070154;28;20111;-79
2021/04/24 12:02:21;;;;;;;4.47;2.05;;;22.10;59.10;;;;;;5068440;28;20381;-79
2021/04/24 12:04:55;;;;;;;3.35;1.55;;;22.30;55.10;;;;;;5070661;28;20044;-80
2021/04/24 12:07:21;;;;;;;11.23;2.00;;;22.30;56.60;;;;;;5072559;28;20039;-80
2021/04/24 12:09:54;;;;;;;5.22;2.20;;;22.00;57.10;;;;;;5065385;28;20037;-79
2021/04/24 12:12:21;;;;;;;5.85;2.45;;;22.60;56.30;;;;;;5068652;28;20020;-79
2021/04/24 12:14:47;;;;;;;6.18;1.98;;;22.60;55.80;;;;;;5060203;28;20047;-79
2021/04/24 12:17:16;;;;;;;4.47;2.40;;;22.40;54.90;;;;;;5070278;28;20413;-79
2021/04/24 12:19:44;;;;;;;5.13;1.98;;;22.30;56.80;;;;;;5070284;28;20032;-80
2021/04/24 12:22:21;;;;;;;6.20;2.30;;;22.70;57.50;;;;;;5066282;28;20039;-78
2021/04/24 12:24:53;;;;;;;4.00;1.80;;;22.70;55.30;;;;;;5068406;28;20055;-79
2021/04/24 12:27:52;;;;;;;7.60;2.00;;;22.70;56.20;;;;;;5068423;28;20107;-79
2021/04/24 12:30:24;;;;;;;9.60;1.77;;;23.00;56.70;;;;;;5034674;28;20043;-79
2021/04/24 12:33:12;;;;;;;5.07;1.95;;;23.10;56.00;;;;;;5069130;28;20116;-79
2021/04/24 12:35:53;;;;;;;3.80;1.77;;;22.90;55.50;;;;;;5066045;28;20032;-79
2021/04/24 12:38:24;;;;;;;12.88;2.03;;;23.10;55.90;;;;;;5068512;28;20094;-80
2021/04/24 12:40:51;;;;;;;4.10;1.70;;;23.30;57.30;;;;;;5068754;28;20036;-80
2021/04/24 12:43:19;;;;;;;5.10;1.70;;;23.00;55.00;;;;;;5068473;28;20025;-79
2021/04/24 12:45:47;;;;;;;4.97;1.30;;;23.10;57.50;;;;;;5062858;28;20427;-79
2021/04/24 12:48:15;;;;;;;4.20;1.75;;;23.10;56.60;;;;;;5071360;28;20032;-79
2021/04/24 12:50:42;;;;;;;4.50;2.10;;;23.40;57.90;;;;;;5071114;28;20032;-79